Time,TemperatureF,DewpointF,PressureIn,WindDirection,WindDirectionDegrees,WindSpeedMPH,WindSpeedGustMPH,Humidity,HourlyPrecipIn,Conditions,Clouds,dailyrainin,SoftwareType,DateUTC
2015-05-27 00:14:00,55.2,51.0,29.83,NNE,31,9.0,9.0,86,0.00,,,0.00,weatherlink.com 1.10,2015-05-27 07:14:00,
2015-05-27 00:29:00,55.5,51.0,29.83,NW,305,1.0,6.0,85,0.00,,,0.00,weatherlink.com 1.10,2015-05-27 07:29:00,
2015-05-27 00:44:00,54.9,51.0,29.83,NNE,18,3.0,3.0,85,0.00,,,0.00,weatherlink.com 1.10,2015-05-27 07:44:00,
2015-05-27 00:59:00,54.3,51.0,29.83,NNW,336,0.0,2.0,87,0.00,,,0.00,weatherlink.com 1.10,2015-05-27 07:59:00,
2015-05-27 01:29:00,54.0,51.0,29.84,NW,326,1.0,2.0,88,0.00,,,0.00,weatherlink.com 1.10,2015-05-27 08:29:00,
2015-05-27 01:59:00,54.1,50.0,29.84,NE,38,4.0,7.0,87,0.00,,,0.00,weatherlink.com 1.10,2015-05-27 08:59:00,
2015-05-27 02:14:00,54.1,51.0,29.84,NE,54,5.0,9.0,88,0.00,,,0.00,weatherlink.com 1.10,2015-05-27 09:14:00,
2015-05-27 02:44:00,53.7,51.0,29.84,NE,49,2.0,3.0,89,0.00,,,0.00,weatherlink.com 1.10,2015-05-27 09:44:00,
2015-05-27 02:59:00,53.3,50.0,29.85,NNE,31,3.0,4.0,89,0.00,,,0.00,weatherlink.com 1.10,2015-05-27 09:59:00,
2015-05-27 03:15:00,53.3,50.0,29.85,North,360,2.0,2.0,89,0.00,,,0.00,weatherlink.com 1.10,2015-05-27 10:15:00,
2015-05-27 03:30:00,53.1,50.0,29.85,North,355,4.0,4.0,90,0.00,,,0.00,weatherlink.com 1.10,2015-05-27 10:30:00,
2015-05-27 03:45:00,52.9,50.0,29.85,NNE,31,0.0,5.0,90,0.00,,,0.00,weatherlink.com 1.10,2015-05-27 10:45:00,
2015-05-27 04:00:00,52.9,50.0,29.85,NE,42,2.0,4.0,90,0.00,,,0.00,weatherlink.com 1.10,2015-05-27 11:00:00,
2015-05-27 04:15:00,52.8,50.0,29.85,NNE,28,3.0,4.0,90,0.00,,,0.00,weatherlink.com 1.10,2015-05-27 11:15:00,
2015-05-27 04:45:00,52.5,50.0,29.85,NNE,16,0.0,3.0,91,0.00,,,0.00,weatherlink.com 1.10,2015-05-27 11:45:00,
2015-05-27 05:00:00,52.4,50.0,29.85,NNW,346,2.0,2.0,91,0.00,,,0.00,weatherlink.com 1.10,2015-05-27 12:00:00,
2015-05-27 05:15:00,52.2,50.0,29.86,NE,46,3.0,5.0,91,0.00,,,0.00,weatherlink.com 1.10,2015-05-27 12:15:00,
2015-05-27 05:30:00,52.1,50.0,29.86,ENE,70,3.0,6.0,91,0.00,,,0.00,weatherlink.com 1.10,2015-05-27 12:30:00,
2015-05-27 05:45:00,52.4,50.0,29.86,ENE,66,4.0,9.0,91,0.00,,,0.00,weatherlink.com 1.10,2015-05-27 12:45:00,
2015-05-27 06:00:00,52.6,50.0,29.86,NE,43,2.0,12.0,91,0.00,,,0.00,weatherlink.com 1.10,2015-05-27 13:00:00,
2015-05-27 06:15:00,52.6,50.0,29.87,North,11,1.0,3.0,91,0.00,,,0.00,weatherlink.com 1.10,2015-05-27 13:15:00,
2015-05-27 06:30:00,52.4,51.0,29.87,NNE,31,1.0,5.0,93,0.00,,,0.00,weatherlink.com 1.10,2015-05-27 13:30:00,
2015-05-27 06:45:00,52.1,50.0,29.88,NE,42,2.0,6.0,93,0.00,,,0.00,weatherlink.com 1.10,2015-05-27 13:45:00,
2015-05-27 07:00:00,52.3,50.0,29.87,NE,38,2.0,4.0,93,0.00,,,0.00,weatherlink.com 1.10,2015-05-27 14:00:00,
2015-05-27 07:15:00,52.2,50.0,29.87,East,96,3.0,6.0,92,0.00,,,0.00,weatherlink.com 1.10,2015-05-27 14:15:00,
2015-05-27 07:30:00,52.6,50.0,29.87,ENE,71,2.0,5.0,92,0.01,,,0.01,weatherlink.com 1.10,2015-05-27 14:30:00,
2015-05-27 07:45:00,52.9,51.0,29.87,NE,55,3.0,8.0,93,0.01,,,0.01,weatherlink.com 1.10,2015-05-27 14:45:00,
2015-05-27 08:00:00,53.1,52.0,29.87,NNW,336,0.0,4.0,94,0.01,,,0.01,weatherlink.com 1.10,2015-05-27 15:00:00,
2015-05-27 08:15:00,53.3,51.0,29.88,North,5,2.0,2.0,93,0.01,,,0.01,weatherlink.com 1.10,2015-05-27 15:15:00,
2015-05-27 08:30:00,53.9,52.0,29.88,North,9,1.0,3.0,94,0.00,,,0.01,weatherlink.com 1.10,2015-05-27 15:30:00,
2015-05-27 08:45:00,54.3,52.0,29.88,NNE,32,3.0,3.0,91,0.01,,,0.02,weatherlink.com 1.10,2015-05-27 15:45:00,
2015-05-27 09:00:00,55.2,53.0,29.88,NW,304,2.0,3.0,91,0.01,,,0.02,weatherlink.com 1.10,2015-05-27 16:00:00,
2015-05-27 09:15:00,56.3,53.0,29.88,NE,50,2.0,3.0,87,0.01,,,0.02,weatherlink.com 1.10,2015-05-27 16:15:00,
2015-05-27 09:30:00,57.8,54.0,29.87,NNW,330,2.0,6.0,87,0.01,,,0.02,weatherlink.com 1.10,2015-05-27 16:30:00,
2015-05-27 09:45:00,59.4,54.0,29.87,NNW,330,2.0,4.0,83,0.00,,,0.02,weatherlink.com 1.10,2015-05-27 16:45:00,
2015-05-27 10:00:00,60.5,53.0,29.87,NNW,346,4.0,4.0,77,0.00,,,0.02,weatherlink.com 1.10,2015-05-27 17:00:00,
2015-05-27 10:15:00,62.0,53.0,29.87,NNW,348,1.0,5.0,73,0.00,,,0.02,weatherlink.com 1.10,2015-05-27 17:15:00,
2015-05-27 10:30:00,62.4,54.0,29.86,NNW,330,2.0,4.0,74,0.00,,,0.02,weatherlink.com 1.10,2015-05-27 17:30:00,
2015-05-27 10:45:00,62.8,53.0,29.86,North,349,2.0,3.0,70,0.00,,,0.02,weatherlink.com 1.10,2015-05-27 17:45:00,
2015-05-27 11:00:00,61.7,53.0,29.86,North,360,1.0,2.0,74,0.00,,,0.02,weatherlink.com 1.10,2015-05-27 18:00:00,
2015-05-27 11:15:00,62.7,54.0,29.86,ENE,62,1.0,3.0,73,0.00,,,0.02,weatherlink.com 1.10,2015-05-27 18:15:00,
2015-05-27 11:30:00,63.7,54.0,29.86,WNW,296,0.0,3.0,71,0.00,,,0.02,weatherlink.com 1.10,2015-05-27 18:30:00,
2015-05-27 11:46:00,64.2,55.0,29.86,West,279,1.0,2.0,73,0.00,,,0.02,weatherlink.com 1.10,2015-05-27 18:46:00,
2015-05-27 12:01:00,64.7,55.0,29.85,SW,228,2.0,4.0,71,0.00,,,0.02,weatherlink.com 1.10,2015-05-27 19:01:00,
2015-05-27 12:16:00,64.7,54.0,29.84,SW,227,2.0,3.0,68,0.00,,,0.02,weatherlink.com 1.10,2015-05-27 19:16:00,
2015-05-27 12:31:00,65.9,55.0,29.84,WSW,252,1.0,5.0,69,0.00,,,0.02,weatherlink.com 1.10,2015-05-27 19:31:00,
2015-05-27 12:46:00,67.2,52.0,29.83,West,260,3.0,7.0,59,0.00,,,0.02,weatherlink.com 1.10,2015-05-27 19:46:00,
2015-05-27 13:01:00,70.6,52.0,29.83,WSW,257,4.0,9.0,52,0.00,,,0.02,weatherlink.com 1.10,2015-05-27 20:01:00,
2015-05-27 13:16:00,69.7,52.0,29.83,WSW,248,3.0,7.0,53,0.00,,,0.02,weatherlink.com 1.10,2015-05-27 20:16:00,
2015-05-27 13:31:00,67.4,51.0,29.82,South,188,5.0,5.0,57,0.00,,,0.02,weatherlink.com 1.10,2015-05-27 20:31:00,
2015-05-27 13:46:00,69.4,53.0,29.82,NW,310,2.0,4.0,56,0.00,,,0.02,weatherlink.com 1.10,2015-05-27 20:46:00,
2015-05-27 14:01:00,72.4,54.0,29.81,WNW,286,2.0,7.0,52,0.00,,,0.02,weatherlink.com 1.10,2015-05-27 21:01:00,
2015-05-27 14:16:00,71.7,52.0,29.81,WSW,241,2.0,5.0,50,0.00,,,0.02,weatherlink.com 1.10,2015-05-27 21:16:00,
2015-05-27 14:31:00,74.2,51.0,29.80,West,276,3.0,5.0,45,0.00,,,0.02,weatherlink.com 1.10,2015-05-27 21:31:00,
2015-05-27 14:46:00,72.8,51.0,29.80,West,273,2.0,7.0,46,0.00,,,0.02,weatherlink.com 1.10,2015-05-27 21:46:00,
2015-05-27 15:01:00,74.5,54.0,29.79,West,266,7.0,7.0,49,0.00,,,0.02,weatherlink.com 1.10,2015-05-27 22:01:00,
2015-05-27 15:16:00,77.1,50.0,29.79,WNW,298,3.0,9.0,39,0.00,,,0.02,weatherlink.com 1.10,2015-05-27 22:16:00,
2015-05-27 15:31:00,77.6,51.0,29.78,West,262,4.0,8.0,39,0.00,,,0.02,weatherlink.com 1.10,2015-05-27 22:31:00,
2015-05-27 15:46:00,77.8,52.0,29.78,West,265,4.0,8.0,40,0.00,,,0.02,weatherlink.com 1.10,2015-05-27 22:46:00,
2015-05-27 16:01:00,79.5,51.0,29.77,WNW,303,3.0,7.0,37,0.00,,,0.02,weatherlink.com 1.10,2015-05-27 23:01:00,
2015-05-27 16:16:00,79.3,50.0,29.78,WNW,290,3.0,7.0,36,0.00,,,0.02,weatherlink.com 1.10,2015-05-27 23:16:00,
2015-05-27 16:31:00,80.0,50.0,29.77,WNW,284,4.0,7.0,35,0.00,,,0.02,weatherlink.com 1.10,2015-05-27 23:31:00,
2015-05-27 16:46:00,80.5,50.0,29.76,WNW,289,4.0,8.0,35,0.00,,,0.02,weatherlink.com 1.10,2015-05-27 23:46:00,
2015-05-27 17:01:00,78.2,52.0,29.77,West,265,4.0,7.0,40,0.00,,,0.02,weatherlink.com 1.10,2015-05-28 00:01:00,
2015-05-27 17:16:00,78.9,52.0,29.76,West,269,2.0,9.0,39,0.00,,,0.02,weatherlink.com 1.10,2015-05-28 00:16:00,
2015-05-27 17:32:00,79.8,51.0,29.76,NW,312,3.0,8.0,36,0.00,,,0.02,weatherlink.com 1.10,2015-05-28 00:32:00,
2015-05-27 17:47:00,78.8,50.0,29.76,NW,306,3.0,8.0,37,0.00,,,0.02,weatherlink.com 1.10,2015-05-28 00:47:00,
2015-05-27 18:02:00,79.3,51.0,29.76,NW,326,2.0,7.0,38,0.00,,,0.02,weatherlink.com 1.10,2015-05-28 01:02:00,
2015-05-27 18:17:00,78.7,51.0,29.76,West,272,2.0,6.0,38,0.00,,,0.02,weatherlink.com 1.10,2015-05-28 01:17:00,
2015-05-27 18:32:00,77.9,49.0,29.76,West,266,3.0,9.0,36,0.00,,,0.02,weatherlink.com 1.10,2015-05-28 01:32:00,
2015-05-27 18:47:00,76.7,50.0,29.76,NW,314,4.0,7.0,39,0.00,,,0.02,weatherlink.com 1.10,2015-05-28 01:47:00,
2015-05-27 19:02:00,75.3,49.0,29.76,WNW,290,3.0,4.0,40,0.00,,,0.02,weatherlink.com 1.10,2015-05-28 02:02:00,
2015-05-27 19:17:00,74.4,51.0,29.77,WSW,246,1.0,9.0,44,0.00,,,0.02,weatherlink.com 1.10,2015-05-28 02:17:00,
2015-05-27 19:32:00,74.4,49.0,29.77,WSW,245,7.0,10.0,41,0.00,,,0.02,weatherlink.com 1.10,2015-05-28 02:32:00,
2015-05-27 19:47:00,73.2,49.0,29.77,SW,231,3.0,11.0,43,0.00,,,0.02,weatherlink.com 1.10,2015-05-28 02:47:00,
2015-05-27 20:02:00,71.8,49.0,29.77,SW,232,3.0,8.0,44,0.00,,,0.02,weatherlink.com 1.10,2015-05-28 03:02:00,
2015-05-27 20:17:00,70.8,49.0,29.77,South,188,4.0,9.0,46,0.00,,,0.02,weatherlink.com 1.10,2015-05-28 03:17:00,
2015-05-27 20:32:00,69.8,50.0,29.77,WSW,240,4.0,7.0,49,0.00,,,0.02,weatherlink.com 1.10,2015-05-28 03:32:00,
2015-05-27 20:47:00,68.4,49.0,29.77,SSE,165,2.0,4.0,51,0.00,,,0.02,weatherlink.com 1.10,2015-05-28 03:47:00,
2015-05-27 21:02:00,67.2,49.0,29.78,SW,219,2.0,4.0,53,0.00,,,0.02,weatherlink.com 1.10,2015-05-28 04:02:00,
2015-05-27 21:17:00,67.1,50.0,29.78,NW,320,3.0,3.0,54,0.00,,,0.02,weatherlink.com 1.10,2015-05-28 04:17:00,
2015-05-27 21:32:00,66.0,50.0,29.79,WSW,250,1.0,6.0,57,0.00,,,0.02,weatherlink.com 1.10,2015-05-28 04:32:00,
2015-05-27 21:47:00,66.2,49.0,29.79,WNW,302,1.0,3.0,55,0.00,,,0.02,weatherlink.com 1.10,2015-05-28 04:47:00,
2015-05-27 22:02:00,66.3,51.0,29.79,WSW,245,3.0,3.0,59,0.00,,,0.02,weatherlink.com 1.10,2015-05-28 05:02:00,
2015-05-27 22:17:00,65.9,50.0,29.79,SSW,213,2.0,4.0,57,0.00,,,0.02,weatherlink.com 1.10,2015-05-28 05:17:00,
2015-05-27 22:32:00,66.2,50.0,29.79,SW,229,3.0,4.0,56,0.00,,,0.02,weatherlink.com 1.10,2015-05-28 05:32:00,
2015-05-27 22:47:00,65.4,50.0,29.80,SSE,161,4.0,6.0,57,0.00,,,0.02,weatherlink.com 1.10,2015-05-28 05:47:00,
2015-05-27 23:02:00,64.3,49.0,29.80,South,175,2.0,7.0,59,0.00,,,0.02,weatherlink.com 1.10,2015-05-28 06:02:00,
2015-05-27 23:18:00,63.2,51.0,29.80,ESE,123,1.0,3.0,64,0.00,,,0.02,weatherlink.com 1.10,2015-05-28 06:18:00,
2015-05-27 23:32:00,62.3,52.0,29.80,NNE,33,3.0,3.0,68,0.00,,,0.02,weatherlink.com 1.10,2015-05-28 06:32:00,
2015-05-27 23:47:00,62.1,51.0,29.81,SW,224,2.0,3.0,67,0.00,,,0.02,weatherlink.com 1.10,2015-05-28 06:47:00,